Time;durP1;ratioP1;P1;durP2;ratioP2;P2;SDS_P1;SDS_P2;PMS_P1;PMS_P2;Temp;Humidity;BMP_temperature;BMP_pressure;BME280_temperature;BME280_humidity;BME280_pressure;Samples;Min_cycle;Max_cycle;Signal;HPM_P1;HPM_P2
2022/12/15 00:39:25;;;;;;;42.50;38.60;;;;;;;-2.96;94.96;96492.27;105358;1321;22180;-89
2022/12/15 00:41:53;;;;;;;43.50;39.30;;;;;;;-2.94;95.03;96494.60;105550;1321;22818;-86
2022/12/15 00:44:22;;;;;;;46.10;41.70;;;;;;;-2.95;94.66;96495.64;105524;1321;22214;-83
2022/12/15 00:46:55;;;;;;;47.40;43.00;;;;;;;-2.97;94.90;96499.06;105409;1321;22249;-84
2022/12/15 01:20:33;;;;;;;55.90;50.50;;;;;;;-2.93;95.22;96532.52;105509;1321;22764;-84
2022/12/15 01:23:01;;;;;;;58.60;52.80;;;;;;;-2.96;95.00;96536.13;105344;1322;22223;-84
2022/12/15 01:25:29;;;;;;;54.50;49.00;;;;;;;-3.00;95.02;96538.66;105917;1306;22815;-83
2022/12/15 01:27:58;;;;;;;54.30;48.90;;;;;;;-2.95;95.49;96534.04;105555;1314;22185;-83
2022/12/15 01:30:26;;;;;;;55.10;49.80;;;;;;;-2.91;95.01;96535.76;105523;1321;22848;-84
2022/12/15 01:32:54;;;;;;;60.90;54.90;;;;;;;-2.89;94.99;96534.88;105077;1324;22194;-83
2022/12/15 01:35:22;;;;;;;64.40;57.80;;;;;;;-2.91;94.93;96535.29;105514;1311;22198;-83
2022/12/15 01:37:50;;;;;;;66.00;59.70;;;;;;;-2.92;94.86;96536.59;105512;1322;22242;-83
2022/12/15 01:43:12;;;;;;;72.40;64.90;;;;;;;-2.94;95.50;96534.83;105357;1321;22221;-84
2022/12/15 01:46:14;;;;;;;73.30;65.90;;;;;;;-2.88;95.51;96530.16;105289;1323;22232;-83
2022/12/15 01:49:21;;;;;;;70.30;63.10;;;;;;;-2.86;95.06;96537.08;105249;1327;22056;-83
2022/12/15 01:52:04;;;;;;;73.20;66.20;;;;;;;-2.85;94.91;96540.00;105506;1322;22207;-83
2022/12/15 01:54:57;;;;;;;71.80;64.60;;;;;;;-2.80;95.41;96544.80;105477;1322;22083;-83
2022/12/15 01:57:29;;;;;;;71.90;64.90;;;;;;;-2.80;95.24;96547.86;105292;1323;22621;-83
2022/12/15 02:00:00;;;;;;;69.10;62.20;;;;;;;-2.83;95.35;96549.15;105525;1320;22227;-84
2022/12/15 02:02:31;;;;;;;66.80;59.80;;;;;;;-2.83;95.29;96553.89;105253;1324;22101;-84
2022/12/15 02:05:07;;;;;;;63.60;57.50;;;;;;;-2.80;95.18;96552.02;105332;1324;22168;-83
2022/12/15 02:07:35;;;;;;;65.70;59.20;;;;;;;-2.74;95.42;96550.02;105282;1323;22247;-83
2022/12/15 02:10:09;;;;;;;66.30;59.90;;;;;;;-2.71;95.19;96555.59;105317;1327;22178;-84
2022/12/15 02:13:32;;;;;;;69.80;63.00;;;;;;;-2.71;95.08;96563.77;105685;1316;22626;-83
2022/12/15 02:16:17;;;;;;;71.70;64.40;;;;;;;-2.79;95.07;96566.80;105282;1312;22294;-84
2022/12/15 02:19:12;;;;;;;70.20;63.50;;;;;;;-2.83;95.34;96569.60;104849;1328;22304;-83
2022/12/15 02:21:49;;;;;;;66.90;60.70;;;;;;;-2.85;95.29;96570.42;104754;1328;22964;-84
2022/12/15 02:24:38;;;;;;;65.80;59.60;;;;;;;-2.84;95.41;96572.01;105188;1319;22154;-84
2022/12/15 02:27:09;;;;;;;65.40;59.20;;;;;;;-2.86;95.43;96572.04;105274;1312;22522;-83
2022/12/15 02:29:45;;;;;;;60.60;54.70;;;;;;;-2.89;95.33;96575.38;104808;1332;23098;-83
2022/12/15 02:32:20;;;;;;;70.60;64.00;;;;;;;-2.92;95.57;96576.48;104835;1328;22303;-84
2022/12/15 02:34:57;;;;;;;66.10;59.80;;;;;;;-2.99;95.59;96586.27;104795;1331;22264;-84
2022/12/15 02:37:31;;;;;;;65.90;59.40;;;;;;;-2.99;95.62;96588.39;104723;1333;22328;-84
2022/12/15 02:39:59;;;;;;;62.10;56.30;;;;;;;-2.97;95.65;96593.30;104761;1329;22250;-84
2022/12/15 02:42:29;;;;;;;65.20;59.10;;;;;;;-2.98;95.74;96596.47;105318;1318;22947;-83
2022/12/15 02:45:06;;;;;;;62.60;56.70;;;;;;;-3.01;96.04;96598.20;105075;1306;22208;-84
2022/12/15 02:48:00;;;;;;;71.80;65.00;;;;;;;-3.05;96.04;96602.73;105272;1322;22209;-84
2022/12/15 02:50:57;;;;;;;67.70;61.30;;;;;;;-3.12;96.03;96603.91;105196;1321;22191;-84
2022/12/15 02:53:57;;;;;;;62.80;57.10;;;;;;;-3.16;96.07;96603.59;105936;1314;22344;-84
2022/12/15 02:56:32;;;;;;;65.20;59.10;;;;;;;-3.18;96.03;96604.77;105500;1321;22223;-83
2022/12/15 02:59:11;;;;;;;66.30;60.10;;;;;;;-3.11;96.05;96613.57;105350;1321;22222;-84
2022/12/15 03:01:48;;;;;;;68.20;61.90;;;;;;;-3.08;96.32;96610.82;105334;1322;22085;-84
2022/12/15 03:04:18;;;;;;;68.40;62.00;;;;;;;-3.10;96.55;96612.20;105323;1318;22235;-84
2022/12/15 03:07:07;;;;;;;63.00;56.90;;;;;;;-3.11;96.60;96614.10;105304;1315;22300;-83
2022/12/15 03:09:35;;;;;;;66.30;60.10;;;;;;;-3.09;96.52;96617.16;105414;1323;23063;-83
2022/12/15 03:12:03;;;;;;;63.60;57.20;;;;;;;-3.08;96.54;96614.55;105348;1324;22181;-83
2022/12/15 03:14:31;;;;;;;65.30;58.90;;;;;;;-3.04;96.72;96614.61;105308;1321;22169;-83
2022/12/15 03:16:59;;;;;;;65.50;59.30;;;;;;;-3.04;96.68;96611.38;105142;1323;22862;-84
2022/12/15 03:19:27;;;;;;;71.10;64.30;;;;;;;-3.05;96.80;96612.91;105896;1314;22260;-84
2022/12/15 03:21:56;;;;;;;74.30;67.30;;;;;;;-3.04;96.84;96619.88;105895;1300;22184;-84
2022/12/15 03:24:24;;;;;;;65.60;59.40;;;;;;;-3.06;96.88;96618.50;105325;1324;23039;-84
2022/12/15 03:26:52;;;;;;;72.70;65.60;;;;;;;-3.05;97.43;96625.56;105488;1321;23125;-84
2022/12/15 03:29:20;;;;;;;80.80;72.90;;;;;;;-3.06;97.41;96628.34;105663;1314;22361;-85
2022/12/15 03:31:48;;;;;;;77.40;70.00;;;;;;;-3.06;97.64;96635.30;105521;1321;22120;-84
2022/12/15 03:34:17;;;;;;;70.90;63.90;;;;;;;-3.09;97.69;96641.48;105496;1321;22137;-84
2022/12/15 03:36:45;;;;;;;68.00;60.90;;;;;;;-3.10;97.94;96641.14;105502;1321;22248;-85
2022/12/15 03:39:13;;;;;;;66.80;60.50;;;;;;;-3.10;97.92;96644.88;105113;1321;22176;-85
2022/12/15 03:41:41;;;;;;;71.20;64.40;;;;;;;-3.09;97.86;96647.27;105783;1314;22250;-84
2022/12/15 03:44:09;;;;;;;74.50;67.00;;;;;;;-3.06;97.75;96650.36;105883;1309;22741;-85
2022/12/15 03:46:37;;;;;;;73.40;66.20;;;;;;;-3.08;98.07;96651.86;105916;1314;22076;-85
2022/12/15 03:49:05;;;;;;;67.90;61.00;;;;;;;-3.07;98.52;96655.62;105884;1307;22167;-85
2022/12/15 03:51:33;;;;;;;70.20;62.70;;;;;;;-3.09;98.39;96658.08;105507;1321;22155;-85
2022/12/15 03:54:01;;;;;;;69.90;63.10;;;;;;;-3.07;98.21;96664.10;105495;1321;22262;-85
2022/12/15 03:56:29;;;;;;;72.80;65.80;;;;;;;-3.03;98.34;96667.28;105501;1307;22052;-85
2022/12/15 03:58:57;;;;;;;76.20;68.60;;;;;;;-3.00;98.58;96668.00;105649;1315;22181;-85
2022/12/15 04:01:25;;;;;;;80.00;71.90;;;;;;;-3.00;98.65;96669.34;105903;1314;22836;-84
2022/12/15 04:03:54;;;;;;;76.80;69.00;;;;;;;-3.03;98.78;96670.71;105507;1321;22909;-85
2022/12/15 04:06:29;;;;;;;74.30;66.60;;;;;;;-3.03;99.29;96671.96;105287;1321;22215;-85
2022/12/15 04:08:57;;;;;;;72.20;65.10;;;;;;;-3.05;99.21;96675.88;105302;1324;22209;-85
2022/12/15 04:11:25;;;;;;;74.40;66.70;;;;;;;-3.05;99.27;96681.33;105090;1321;22189;-84
2022/12/15 04:13:53;;;;;;;73.00;66.20;;;;;;;-3.04;99.47;96681.48;105626;1314;22180;-85
2022/12/15 04:16:21;;;;;;;76.90;69.20;;;;;;;-3.00;99.44;96687.72;105529;1321;22211;-85
2022/12/15 04:20:07;;;;;;;83.40;75.00;;;;;;;-2.98;99.71;96691.59;105298;1312;22177;-85
2022/12/15 04:21:37;;;;;;;80.50;72.20;;;;;;;-3.01;99.73;96694.35;105530;1321;22234;-85
2022/12/15 05:33:40;;;;;;;80.80;72.50;;;;;;;-2.95;99.95;96776.14;105501;1321;22245;-84
2022/12/15 05:36:08;;;;;;;83.30;74.30;;;;;;;-2.94;100.00;96787.59;105478;1321;22262;-85
2022/12/15 05:38:36;;;;;;;86.70;75.70;;;;;;;-2.94;100.00;96789.64;105513;1321;22222;-85
2022/12/15 05:41:04;;;;;;;83.10;74.60;;;;;;;-2.96;99.97;96792.51;105271;1322;22794;-84
2022/12/15 05:43:32;;;;;;;79.00;70.60;;;;;;;-2.99;99.99;96794.31;105302;1316;22216;-84
2022/12/15 05:46:04;;;;;;;77.60;67.90;;;;;;;-2.98;99.98;96796.33;105513;1321;22743;-85
2022/12/15 05:48:32;;;;;;;76.70;68.60;;;;;;;-2.95;99.96;96798.73;105319;1321;22930;-85
2022/12/15 05:51:10;;;;;;;79.50;70.90;;;;;;;-2.94;99.96;96800.94;105502;1321;22196;-84
2022/12/15 05:53:39;;;;;;;78.10;69.80;;;;;;;-2.95;99.85;96803.59;105380;1321;22205;-84
2022/12/15 05:56:10;;;;;;;80.80;72.20;;;;;;;-2.96;99.99;96799.41;105582;1314;22227;-84
2022/12/15 05:58:39;;;;;;;74.10;66.60;;;;;;;-3.03;99.90;96801.61;105267;1321;22079;-85
2022/12/15 06:01:15;;;;;;;74.00;66.90;;;;;;;-3.04;99.97;96810.83;105806;1315;22158;-84
2022/12/15 06:03:43;;;;;;;75.00;67.10;;;;;;;-3.05;99.81;96818.66;105499;1321;22279;-85
2022/12/15 06:06:12;;;;;;;71.60;64.30;;;;;;;-3.06;99.88;96825.23;105883;1314;22085;-85
2022/12/15 06:08:44;;;;;;;75.00;67.40;;;;;;;-3.05;99.91;96832.11;105458;1314;22214;-84
2022/12/15 06:11:14;;;;;;;78.50;70.10;;;;;;;-3.03;99.83;96834.72;105305;1321;22953;-84
2022/12/15 06:13:42;;;;;;;79.50;70.90;;;;;;;-3.03;99.64;96846.36;105285;1321;22207;-84
2022/12/15 06:16:18;;;;;;;73.40;65.90;;;;;;;-3.04;99.62;96852.15;105297;1321;22203;-84
2022/12/15 06:18:54;;;;;;;74.50;66.90;;;;;;;-3.04;99.58;96856.52;105888;1314;22312;-85
2022/12/15 06:21:30;;;;;;;72.50;65.00;;;;;;;-3.06;99.61;96862.35;105113;1321;22167;-85
2022/12/15 06:23:59;;;;;;;71.10;63.80;;;;;;;-3.06;99.65;96874.11;105482;1321;22187;-85
2022/12/15 06:26:30;;;;;;;73.60;65.90;;;;;;;-3.04;99.49;96875.82;105510;1321;22189;-85
2022/12/15 06:29:03;;;;;;;73.90;66.60;;;;;;;-3.05;99.45;96869.68;105264;1321;22203;-85
2022/12/15 06:31:31;;;;;;;80.70;72.00;;;;;;;-3.06;99.34;96882.11;105622;1309;22245;-85
2022/12/15 06:34:03;;;;;;;76.00;67.80;;;;;;;-3.09;99.21;96889.86;105128;1321;22210;-83
2022/12/15 06:36:31;;;;;;;77.60;69.90;;;;;;;-3.06;99.25;96900.14;105547;1321;22221;-85
2022/12/15 06:39:05;;;;;;;74.10;66.00;;;;;;;-3.01;99.40;96896.58;105243;1321;22912;-85
2022/12/15 06:41:33;;;;;;;82.10;73.60;;;;;;;-2.95;99.60;96904.40;105110;1320;22258;-85
2022/12/15 06:44:02;;;;;;;85.10;76.20;;;;;;;-2.93;99.38;96921.88;105518;1321;22950;-85
2022/12/15 06:46:32;;;;;;;88.30;78.10;;;;;;;-2.93;99.51;96933.52;105665;1308;23392;-85
2022/12/15 06:49:00;;;;;;;102.50;79.40;;;;;;;-2.93;99.32;96933.05;105408;1321;22108;-84
2022/12/15 06:51:28;;;;;;;80.10;71.50;;;;;;;-2.98;99.06;96927.48;105806;1314;22142;-85
2022/12/15 06:53:56;;;;;;;75.10;67.40;;;;;;;-2.95;99.23;96928.80;105319;1321;22199;-84
2022/12/15 06:56:31;;;;;;;73.50;65.30;;;;;;;-2.94;99.08;96922.59;105609;1314;22871;-83
2022/12/15 06:59:03;;;;;;;68.20;61.60;;;;;;;-2.92;99.00;96927.38;105495;1321;22161;-83
2022/12/15 07:01:31;;;;;;;76.70;68.90;;;;;;;-2.91;99.11;96936.35;105292;1321;22215;-83
2022/12/15 07:04:01;;;;;;;72.60;65.60;;;;;;;-2.97;98.92;96942.68;105894;1305;22194;-83
2022/12/15 07:06:37;;;;;;;70.80;63.80;;;;;;;-3.00;98.91;96945.05;105211;1321;22388;-83
2022/12/15 07:09:07;;;;;;;66.40;59.40;;;;;;;-2.96;98.97;96951.02;105105;1321;22285;-84
2022/12/15 07:11:35;;;;;;;72.10;64.80;;;;;;;-2.94;98.72;96960.17;105284;1318;22207;-83
2022/12/15 07:14:03;;;;;;;75.60;68.00;;;;;;;-2.96;98.49;96967.80;105497;1316;22186;-84
2022/12/15 07:16:31;;;;;;;73.80;66.30;;;;;;;-3.00;98.58;96962.29;105482;1315;22179;-84
2022/12/15 07:19:00;;;;;;;72.30;64.70;;;;;;;-3.02;98.37;96970.04;105504;1321;22287;-84
2022/12/15 07:21:28;;;;;;;69.40;62.50;;;;;;;-3.02;98.63;96968.36;105512;1321;22186;-83
2022/12/15 07:23:56;;;;;;;68.00;60.90;;;;;;;-2.95;98.69;96979.67;105124;1321;22139;-84
2022/12/15 07:26:25;;;;;;;71.70;64.50;;;;;;;-2.89;98.53;96978.61;105128;1321;22270;-84
2022/12/15 07:28:53;;;;;;;79.50;71.10;;;;;;;-2.94;98.39;96981.06;105328;1324;22190;-83
2022/12/15 07:31:21;;;;;;;78.50;70.10;;;;;;;-2.96;98.21;96989.51;105908;1306;22793;-84
2022/12/15 07:33:51;;;;;;;79.20;68.10;;;;;;;-3.00;98.27;97007.18;105358;1321;203009;-84
2022/12/15 07:36:19;;;;;;;73.00;65.40;;;;;;;-2.97;98.41;97012.19;105485;1315;22218;-83
2022/12/15 07:38:47;;;;;;;67.90;61.10;;;;;;;-2.94;98.19;97016.38;105527;1321;22825;-84
2022/12/15 07:41:19;;;;;;;70.90;63.80;;;;;;;-2.93;98.10;97020.98;105292;1321;22218;-84
2022/12/15 07:43:47;;;;;;;69.00;62.10;;;;;;;-2.93;97.87;97026.47;105527;1321;22292;-83
2022/12/15 07:46:17;;;;;;;65.60;59.00;;;;;;;-2.99;96.98;97032.83;105598;1314;22083;-84
2022/12/15 07:48:45;;;;;;;63.40;56.10;;;;;;;-3.08;96.47;97035.92;105503;1321;22231;-84
2022/12/15 07:51:19;;;;;;;64.00;57.60;;;;;;;-3.11;96.42;97031.44;105897;1299;22108;-84
2022/12/15 07:53:49;;;;;;;68.20;61.40;;;;;;;-3.14;96.46;97022.88;105918;1306;22851;-84
2022/12/15 07:56:18;;;;;;;70.30;62.90;;;;;;;-3.15;96.53;97028.28;105487;1321;22199;-84
2022/12/15 07:58:47;;;;;;;65.60;59.00;;;;;;;-3.18;95.54;97032.17;105262;1321;22096;-84
2022/12/15 08:01:15;;;;;;;61.90;55.70;;;;;;;-3.24;95.36;97043.45;105893;1314;22143;-84
2022/12/15 08:03:44;;;;;;;67.80;61.20;;;;;;;-3.24;95.38;97049.06;105524;1321;22239;-84
2022/12/15 08:06:13;;;;;;;70.40;61.70;;;;;;;-3.26;95.47;97050.73;105691;1308;22882;-84
2022/12/15 08:08:43;;;;;;;72.00;64.80;;;;;;;-3.27;95.45;97044.38;105100;1321;22248;-85
2022/12/15 08:11:19;;;;;;;65.20;58.70;;;;;;;-3.26;95.26;97048.87;105273;1321;22189;-84
2022/12/15 08:13:48;;;;;;;65.30;58.80;;;;;;;-3.25;95.60;97059.59;105251;1316;22219;-83
2022/12/15 08:16:32;;;;;;;63.30;57.20;;;;;;;-3.20;95.73;97065.77;105401;1308;22190;-84
2022/12/15 08:19:00;;;;;;;64.50;58.20;;;;;;;-3.14;95.76;97073.94;105477;1321;22208;-83
2022/12/15 08:21:30;;;;;;;70.20;63.30;;;;;;;-3.12;95.45;97079.62;105313;1321;22272;-84
2022/12/15 08:24:02;;;;;;;74.00;66.20;;;;;;;-3.11;95.01;97076.84;105474;1315;22273;-83
2022/12/15 08:26:30;;;;;;;70.70;63.70;;;;;;;-3.12;95.41;97079.16;105260;1321;22240;-84
2022/12/15 08:29:05;;;;;;;81.50;71.10;;;;;;;-3.03;95.64;97091.52;105337;1321;22204;-84
2022/12/15 08:31:53;;;;;;;;;;;;;;;-2.98;95.26;97101.02;105230;1321;23085;-84
2022/12/15 08:34:21;;;;;;;86.10;74.50;;;;;;;-3.00;95.35;97109.52;105393;1321;22198;-84
2022/12/15 08:36:49;;;;;;;83.90;74.80;;;;;;;-3.02;95.33;97110.90;105238;1309;22260;-83
2022/12/15 08:39:17;;;;;;;80.50;69.90;;;;;;;-3.02;94.90;97115.36;105320;1321;22267;-84
2022/12/15 08:41:46;;;;;;;72.50;64.80;;;;;;;-3.04;94.42;97117.86;105657;1314;22169;-83
2022/12/15 08:44:15;;;;;;;76.40;66.70;;;;;;;-3.05;94.05;97124.20;105505;1318;22108;-84
2022/12/15 08:46:43;;;;;;;74.00;66.60;;;;;;;-3.02;94.51;97120.76;105535;1321;22097;-84
2022/12/15 08:49:11;;;;;;;77.40;69.30;;;;;;;-2.99;94.35;97119.44;105909;1299;22173;-83
2022/12/15 08:51:48;;;;;;;74.40;66.60;;;;;;;-2.98;94.11;97117.95;105265;1321;22163;-84
2022/12/15 08:54:18;;;;;;;76.60;68.80;;;;;;;-2.97;94.23;97119.08;105331;1316;22213;-84
2022/12/15 08:56:46;;;;;;;71.20;64.00;;;;;;;-2.93;94.32;97121.15;105518;1321;22221;-84
2022/12/15 08:59:14;;;;;;;76.40;68.70;;;;;;;-2.86;93.99;97128.41;105509;1321;22211;-86
2022/12/15 09:01:42;;;;;;;77.90;69.50;;;;;;;-2.89;94.10;97128.25;105326;1321;22211;-86
2022/12/15 09:04:11;;;;;;;81.00;72.10;;;;;;;-2.85;94.35;97132.04;105480;1321;22077;-86
2022/12/15 09:06:39;;;;;;;79.40;71.10;;;;;;;-2.81;93.95;97126.19;105279;1321;22189;-88
2022/12/15 09:09:10;;;;;;;75.90;68.30;;;;;;;-2.81;94.10;97123.69;105663;1314;22167;-86
2022/12/15 09:11:39;;;;;;;72.60;65.40;;;;;;;-2.72;94.12;97126.69;105674;1314;22952;-85
2022/12/15 09:14:07;;;;;;;77.60;69.80;;;;;;;-2.66;94.26;97135.89;105305;1321;22167;-84
2022/12/15 09:16:35;;;;;;;75.80;68.40;;;;;;;-2.61;93.87;97137.64;105914;1301;22306;-84
2022/12/15 09:19:03;;;;;;;78.00;69.90;;;;;;;-2.59;93.43;97139.46;105932;1314;22185;-84
2022/12/15 09:21:31;;;;;;;77.50;69.30;;;;;;;-2.65;93.65;97134.34;105946;1314;22238;-85
2022/12/15 09:24:00;;;;;;;83.60;74.20;;;;;;;-2.63;93.74;97138.02;105923;1314;22132;-85
2022/12/15 09:26:31;;;;;;;78.20;70.00;;;;;;;-2.58;93.80;97134.20;105875;1314;22225;-87
2022/12/15 09:29:00;;;;;;;72.70;65.50;;;;;;;-2.53;93.35;97139.28;105569;1321;22217;-84
2022/12/15 09:31:32;;;;;;;75.20;67.60;;;;;;;-2.48;93.45;97139.80;105323;1321;22252;-85
2022/12/15 09:34:01;;;;;;;78.50;70.60;;;;;;;-2.47;92.75;97139.45;105621;1314;22197;-85
2022/12/15 09:36:31;;;;;;;80.10;71.80;;;;;;;-2.49;92.79;97138.39;105681;1314;22064;-85
2022/12/15 09:39:03;;;;;;;79.90;71.80;;;;;;;-2.48;92.77;97140.12;105673;1314;22907;-85
2022/12/15 09:41:34;;;;;;;73.20;65.90;;;;;;;-2.45;92.83;97151.83;105970;1303;21917;-84
2022/12/15 09:44:14;;;;;;;74.90;66.90;;;;;;;-2.39;93.40;97155.02;105766;1321;22204;-84
2022/12/15 09:47:00;;;;;;;78.10;70.30;;;;;;;-2.35;92.73;97153.98;105344;1321;22246;-84
2022/12/15 09:49:45;;;;;;;71.50;64.60;;;;;;;-2.36;92.74;97150.20;105415;1321;22160;-84
2022/12/15 09:53:09;;;;;;;72.20;65.00;;;;;;;-2.39;92.87;97146.04;105287;1321;22155;-84
2022/12/15 09:56:05;;;;;;;66.20;59.70;;;;;;;-2.38;93.05;97136.60;105380;1321;22097;-85
2022/12/15 09:58:55;;;;;;;66.30;59.80;;;;;;;-2.28;92.88;97144.23;105127;1321;22224;-84
2022/12/15 10:01:34;;;;;;;72.10;63.70;;;;;;;-2.28;91.75;97158.61;105507;1321;22188;-83
2022/12/15 10:04:37;;;;;;;74.70;67.50;;;;;;;-2.27;92.09;97153.35;105628;1314;22238;-85
2022/12/15 10:07:35;;;;;;;74.70;67.30;;;;;;;-2.26;91.47;97157.89;105516;1307;22244;-85
2022/12/15 10:10:21;;;;;;;74.40;66.90;;;;;;;-2.30;90.43;97167.05;105817;1314;22260;-86
2022/12/15 10:12:54;;;;;;;70.80;63.70;;;;;;;-2.42;90.22;97175.52;105353;1321;22250;-84
2022/12/15 10:15:40;;;;;;;79.30;71.30;;;;;;;-2.45;90.89;97180.17;105240;1321;22175;-84
2022/12/15 10:18:46;;;;;;;79.40;71.30;;;;;;;-2.43;91.50;97170.91;105073;1321;22996;-85
2022/12/15 10:21:17;;;;;;;77.20;69.70;;;;;;;-2.35;91.94;97166.81;104875;1327;22331;-84
2022/12/15 10:23:48;;;;;;;76.00;68.70;;;;;;;-2.25;92.14;97162.98;104832;1327;22303;-84
2022/12/15 10:26:21;;;;;;;74.80;66.90;;;;;;;-2.22;92.27;97156.02;105049;1320;22231;-83
2022/12/15 10:29:34;;;;;;;71.90;64.60;;;;;;;-2.05;92.30;97151.71;104862;1327;22243;-84
2022/12/15 10:32:09;;;;;;;74.40;66.80;;;;;;;-1.85;92.22;97143.23;104617;1327;22967;-83
2022/12/15 10:34:40;;;;;;;74.00;66.20;;;;;;;-1.80;91.12;97146.61;104821;1327;22244;-84
2022/12/15 10:37:16;;;;;;;73.70;66.60;;;;;;;-1.87;89.94;97152.33;105035;1305;22232;-84
2022/12/15 10:39:46;;;;;;;77.60;70.10;;;;;;;-1.99;89.34;97151.75;104738;1327;23020;-83
2022/12/15 10:42:25;;;;;;;71.90;64.50;;;;;;;-2.10;90.35;97151.11;105192;1305;22234;-83
2022/12/15 10:44:57;;;;;;;71.50;64.60;;;;;;;-2.10;89.81;97154.88;104903;1327;22195;-84
2022/12/15 10:47:30;;;;;;;68.50;61.60;;;;;;;-2.13;88.86;97155.66;104736;1327;23092;-84
2022/12/15 10:50:21;;;;;;;72.00;64.90;;;;;;;-2.23;89.28;97152.52;105074;1320;22252;-84
2022/12/15 10:52:52;;;;;;;75.00;67.20;;;;;;;-2.19;89.90;97149.97;105249;1319;22172;-85
2022/12/15 10:55:40;;;;;;;78.30;70.30;;;;;;;-2.18;89.98;97154.14;105419;1314;22237;-84
2022/12/15 10:58:20;;;;;;;74.50;67.10;;;;;;;-2.14;90.04;97165.67;105773;1315;22092;-84
2022/12/15 11:01:06;;;;;;;65.70;59.20;;;;;;;-2.16;89.71;97174.14;105614;1321;22324;-85
2022/12/15 11:03:37;;;;;;;71.40;64.60;;;;;;;-2.11;89.77;97173.59;106155;1299;22071;-82
2022/12/15 11:06:17;;;;;;;61.70;56.00;;;;;;;-2.02;90.40;97170.48;105898;1298;22171;-82
2022/12/15 11:08:46;;;;;;;65.10;58.70;;;;;;;-1.94;89.63;97174.94;105528;1321;22181;-82
2022/12/15 11:14:41;;;;;;;64.50;58.30;;;;;;;-1.77;90.28;97178.12;105520;1321;22213;-83
2022/12/15 11:17:23;;;;;;;64.60;58.60;;;;;;;-1.76;89.58;97186.29;105306;1321;22206;-83
2022/12/15 11:19:51;;;;;;;66.60;60.30;;;;;;;-1.69;90.37;97181.12;105659;1308;22236;-82
2022/12/15 11:22:42;;;;;;;67.30;61.10;;;;;;;-1.55;90.57;97181.80;105967;1308;22144;-83
2022/12/15 11:25:53;;;;;;;59.00;53.50;;;;;;;-1.50;89.96;97189.66;105493;1321;22171;-82
2022/12/15 11:28:30;;;;;;;59.10;53.50;;;;;;;-1.47;89.70;97189.38;105853;1314;22199;-82
2022/12/15 11:31:34;;;;;;;61.70;55.60;;;;;;;-1.37;89.97;97188.63;105925;1314;22260;-83
2022/12/15 11:34:03;;;;;;;61.70;55.90;;;;;;;-1.20;90.46;97193.55;105391;1321;23041;-83
2022/12/15 11:36:53;;;;;;;64.40;58.30;;;;;;;-1.10;90.33;97201.45;105521;1321;22176;-83
2022/12/15 11:39:59;;;;;;;63.50;57.60;;;;;;;-1.11;89.28;97207.83;105365;1315;22225;-82
2022/12/15 11:42:27;;;;;;;;;;;;;;;-1.12;89.76;97204.69;105641;1312;22277;-83
2022/12/15 11:45:35;;;;;;;65.30;58.70;;;;;;;-1.12;89.90;97201.89;105511;1321;22243;-82
2022/12/15 11:48:36;;;;;;;63.90;57.80;;;;;;;-1.15;88.88;97199.84;105495;1306;22220;-83
2022/12/15 11:51:09;;;;;;;60.70;54.90;;;;;;;-1.08;89.66;97202.59;105494;1321;22184;-82
2022/12/15 11:53:46;;;;;;;63.90;57.70;;;;;;;-0.97;89.60;97205.46;105264;1321;22299;-82
2022/12/15 11:56:22;;;;;;;63.60;57.50;;;;;;;-0.94;89.37;97211.89;105519;1321;22215;-83
2022/12/15 11:59:05;;;;;;;64.90;58.70;;;;;;;-0.91;89.38;97211.99;105595;1314;22159;-83
2022/12/15 12:01:56;;;;;;;64.70;58.50;;;;;;;-0.96;88.10;97214.15;105264;1322;22192;-82
2022/12/15 12:04:48;;;;;;;65.30;59.30;;;;;;;-1.00;89.17;97220.76;105508;1321;22080;-82
2022/12/15 12:07:23;;;;;;;67.80;61.50;;;;;;;-0.92;89.60;97217.48;105097;1321;22189;-81
2022/12/15 12:10:33;;;;;;;66.10;59.00;;;;;;;-0.93;89.26;97221.64;105496;1321;22233;-82
2022/12/15 12:13:19;;;;;;;66.70;60.30;;;;;;;-0.89;89.06;97218.79;104858;1328;22217;-81
2022/12/15 12:16:21;;;;;;;66.60;60.20;;;;;;;-0.79;89.28;97219.58;104841;1330;22239;-85
2022/12/15 12:19:14;;;;;;;65.90;59.50;;;;;;;-0.80;88.57;97228.30;104790;1327;22141;-83
2022/12/15 12:21:47;;;;;;;65.00;58.80;;;;;;;-0.78;88.94;97224.77;105129;1327;22186;-86
2022/12/15 12:24:25;;;;;;;67.50;60.80;;;;;;;-0.78;88.65;97220.23;104786;1327;22234;-85
2022/12/15 12:27:04;;;;;;;68.90;62.50;;;;;;;-0.75;89.05;97220.21;104763;1330;22270;-85
2022/12/15 12:29:36;;;;;;;71.50;64.30;;;;;;;-0.70;89.22;97226.33;104666;1330;22231;-85
2022/12/15 12:32:17;;;;;;;70.60;63.90;;;;;;;-0.69;88.86;97229.20;104778;1328;22282;-85
2022/12/15 12:35:02;;;;;;;71.10;64.20;;;;;;;-0.66;89.14;97228.65;105154;1315;22949;-85
2022/12/15 12:37:55;;;;;;;73.00;65.70;;;;;;;-0.59;89.42;97221.24;104888;1327;22557;-83
2022/12/15 12:40:56;;;;;;;72.60;65.30;;;;;;;-0.60;88.81;97214.99;104859;1326;22275;-84
2022/12/15 12:43:37;;;;;;;74.40;66.80;;;;;;;-0.66;88.69;97198.96;104684;1328;22237;-85
2022/12/15 12:46:21;;;;;;;70.30;63.50;;;;;;;-0.58;89.00;97191.93;104777;1315;22309;-84
2022/12/15 12:49:05;;;;;;;73.00;65.40;;;;;;;-0.56;88.07;97196.25;105531;1321;22255;-85
2022/12/15 12:51:37;;;;;;;71.10;63.80;;;;;;;-0.55;88.09;97212.46;105346;1320;22288;-83
2022/12/15 12:54:40;;;;;;;70.10;63.00;;;;;;;-0.52;88.52;97213.98;105532;1321;22189;-85
2022/12/15 12:57:12;;;;;;;75.60;68.10;;;;;;;-0.45;89.06;97217.78;105351;1315;22324;-85
2022/12/15 12:59:47;;;;;;;87.70;76.80;;;;;;;-0.41;89.08;97219.63;105651;1315;22156;-84
2022/12/15 13:02:24;;;;;;;90.20;80.30;;;;;;;-0.49;88.28;97232.12;105553;1321;22337;-86
2022/12/15 13:04:59;;;;;;;94.90;84.90;;;;;;;-0.59;88.12;97239.07;105981;1308;22749;-86
2022/12/15 13:07:31;;;;;;;95.20;84.00;;;;;;;-0.62;88.61;97236.74;105579;1321;22253;-83
2022/12/15 13:10:08;;;;;;;112.10;88.80;;;;;;;-0.64;88.65;97238.35;105840;1303;22254;-82
2022/12/15 13:12:59;;;;;;;90.20;81.40;;;;;;;-0.65;88.47;97234.64;105551;1321;22744;-80
2022/12/15 13:15:30;;;;;;;93.70;82.90;;;;;;;-0.71;88.83;97240.75;105943;1314;22347;-81
2022/12/15 13:18:05;;;;;;;89.70;80.50;;;;;;;-0.70;88.71;97232.88;105947;1314;22253;-83
2022/12/15 13:20:35;;;;;;;88.10;78.90;;;;;;;-0.75;87.98;97223.11;105300;1321;22179;-85
2022/12/15 13:23:35;;;;;;;123.20;97.20;;;;;;;-0.79;88.12;97223.02;105326;1321;23061;-86
2022/12/15 13:26:03;;;;;;;135.50;96.20;;;;;;;-0.86;87.79;97224.54;105530;1318;22205;-85
2022/12/15 13:28:41;;;;;;;119.00;92.70;;;;;;;-0.98;87.95;97226.54;105572;1321;22298;-84
2022/12/15 13:31:15;;;;;;;95.10;84.40;;;;;;;-0.99;88.41;97227.90;105928;1314;22159;-84
2022/12/15 13:33:49;;;;;;;101.60;83.90;;;;;;;-0.99;88.19;97222.45;105528;1321;22120;-83
2022/12/15 13:36:38;;;;;;;97.50;83.20;;;;;;;-1.06;87.64;97220.13;105652;1300;22894;-84
2022/12/15 13:39:13;;;;;;;423.50;264.00;;;;;;;-1.13;87.74;97225.13;105633;1321;22201;-83
2022/12/15 13:41:42;;;;;;;490.00;275.40;;;;;;;-1.15;87.65;97227.12;105679;1321;22845;-85
2022/12/15 13:44:50;;;;;;;388.10;239.60;;;;;;;-1.21;87.59;97232.73;105376;1316;22133;-85
2022/12/15 13:47:25;;;;;;;224.10;125.70;;;;;;;-1.28;87.72;97233.35;105688;1314;22183;-85
2022/12/15 13:49:53;;;;;;;317.20;172.60;;;;;;;-1.34;88.05;97238.27;105944;1314;22187;-83
2022/12/15 13:52:44;;;;;;;194.70;119.30;;;;;;;-1.36;87.90;97245.73;105343;1321;22870;-84
2022/12/15 13:55:48;;;;;;;150.00;97.00;;;;;;;-1.38;88.07;97246.61;105684;1314;22174;-83
2022/12/15 13:58:20;;;;;;;160.30;101.60;;;;;;;-1.31;88.40;97253.91;105636;1306;22940;-83
2022/12/15 14:00:54;;;;;;;165.20;103.50;;;;;;;-1.24;88.34;97264.04;105531;1315;22117;-84
2022/12/15 14:03:23;;;;;;;127.90;90.00;;;;;;;-1.16;88.29;97264.27;105605;1308;22181;-84
2022/12/15 14:05:57;;;;;;;115.20;88.10;;;;;;;-1.10;88.24;97267.48;105403;1321;22141;-83
2022/12/15 14:08:29;;;;;;;130.70;96.30;;;;;;;-1.12;87.81;97267.23;105345;1321;22277;-84
2022/12/15 14:11:00;;;;;;;138.10;97.10;;;;;;;-1.19;87.65;97277.55;105342;1321;22204;-83
2022/12/15 14:13:49;;;;;;;133.00;97.90;;;;;;;-1.30;87.74;97284.96;105276;1322;22172;-83